Manakin, Virginia
Current Conditions -  °F | °C
As of 10:54 AM on Friday 28 Nov 2014 (Local Time) from KOFP Reporting Station
Clear Clear  
Wind Chill: 33°   Ceiling: Unl
Heat Index: 39°   Visibility: 10mi
Dew Point: 20°   Wind: 9mph
Humidity: 46%   Direction: 320°NW
Pressure: 30.35"   Gusts: 16mph
Location:  37.6517°N, 77.7212°W
Report Text: KOFP 281554Z AUTO 32008G14KT 290V010 10SM CLR 04/M07 A3035 RMK AO2 SLP278 T00391067
Loading
Personal Weather Stations






























Interactive Weather Map New forecast layout! Learn more

10-Day Weather Forecast

Advertisements
Track Severe Weather on mobile